Aegina II — SW6459 — position and weather

sailwx.info

Track history (hours):
 
Tides and Currents Weather Stations Pressure Air Temp Water Temp Dewpoint Dewpoint Depression Visibility Wind Speed Wind Dir Waves Ship Positions

Aegina II

Last reported at 2017-Nov-19 15:11 UTC. Time now 2017-Nov-23 05:52 UTC.
Position N 37°45' E 023°26'.

Length 53 m; draft 5.5 m.

Type: Tanker. MMSI: 237096700.

Date/timePositionNaut miles runAvg speedWind from/ knotsBaromVisibWave heightAir tempDewpointWater temp
2017-Nov-19 15:11N 37°45' E 023°26'1 3.0
2017-Nov-19 15:00N 37°45' E 023°25'2 4.9
2017-Nov-19 14:30N 37°47' E 023°26'3 5.3
2017-Nov-19 14:00N 37°49' E 023°28'3 5.3
2017-Nov-19 13:30N 37°51' E 023°30'3 5.6
2017-Nov-19 13:00N 37°54' E 023°32'3 5.4
2017-Nov-19 12:30N 37°56' E 023°34'2 3.7
2017-Nov-19 12:01N 37°57' E 023°33'2 5.0
2017-Nov-19 11:30N 37°60' E 023°33'3 4.8
2017-Nov-19 10:58N 38°02' E 023°35'0 0.2
2017-Nov-19 10:29N 38°02' E 023°35'0 0.0
2017-Nov-19 09:55N 38°02' E 023°35'0 0.0
2017-Nov-19 09:29N 38°02' E 023°35'0 0.0
2017-Nov-19 08:59N 38°02' E 023°35'1 1.3
2017-Nov-19 08:30N 38°02' E 023°35'3 6.6
2017-Nov-19 08:00N 37°59' E 023°33'3 5.8
2017-Nov-19 07:30N 37°56' E 023°35'3 6.1
2017-Nov-19 07:00N 37°54' E 023°32'3 6.3
2017-Nov-19 06:30N 37°51' E 023°30'3 6.4
2017-Nov-19 06:00N 37°49' E 023°27'3 6.8
2017-Nov-19 05:30N 37°46' E 023°25'1 0.2
2017-Nov-18 21:56N 37°45' E 023°26'0 0.0
2017-Nov-18 21:29N 37°45' E 023°26'0 0.0
2017-Nov-18 21:00N 37°45' E 023°26'0 0.0
2017-Nov-18 20:28N 37°45' E 023°26'0 0.0
2017-Nov-18 19:45N 37°45' E 023°26'0 0.0
2017-Nov-18 19:30N 37°45' E 023°26'0 0.0
2017-Nov-18 18:55N 37°45' E 023°26'0 0.0
2017-Nov-18 18:28N 37°45' E 023°26'0 0.0
2017-Nov-18 17:50N 37°45' E 023°26'0 0.0
2017-Nov-18 16:40N 37°45' E 023°26'0 0.0
2017-Nov-18 16:22N 37°45' E 023°26'0 0.0
2017-Nov-18 15:41N 37°45' E 023°26'0 0.0
2017-Nov-18 15:29N 37°45' E 023°26'0 0.1
2017-Nov-18 15:00N 37°45' E 023°26'2 3.5
2017-Nov-18 14:30N 37°46' E 023°25'3 5.2
2017-Nov-18 14:00N 37°49' E 023°27'3 5.2
2017-Nov-18 13:30N 37°51' E 023°29'3 5.4
2017-Nov-18 13:00N 37°53' E 023°31'3 5.3
2017-Nov-18 12:30N 37°55' E 023°33'2 4.7
2017-Nov-18 12:00N 37°57' E 023°35'2 4.5
2017-Nov-18 11:30N 37°59' E 023°33'3 5.0
2017-Nov-18 11:00N 38°01' E 023°34'2 2.7
2017-Nov-18 10:26N 38°02' E 023°35'0 0.0
2017-Nov-18 10:00N 38°02' E 023°35'0 0.0
2017-Nov-18 09:23N 38°02' E 023°35'0 0.0
2017-Nov-18 08:59N 38°02' E 023°35'1 2.8
2017-Nov-18 08:30N 38°01' E 023°34'3 6.6
2017-Nov-18 08:00N 37°58' E 023°33'3 5.1
2017-Nov-18 07:30N 37°56' E 023°34'3 6.5
2017-Nov-18 07:00N 37°53' E 023°31'3 6.4
2017-Nov-18 06:30N 37°51' E 023°29'3 6.6
2017-Nov-18 06:00N 37°48' E 023°27'3 6.5
2017-Nov-18 05:30N 37°45' E 023°25'2 0.2
2017-Nov-17 16:31N 37°47' E 023°26'0 4.6
2017-Nov-17 16:30N 37°47' E 023°26'3 5.3
2017-Nov-17 15:59N 37°49' E 023°28'3 5.4
2017-Nov-17 15:30N 37°52' E 023°30'3 5.2
2017-Nov-17 15:00N 37°54' E 023°32'3 5.1
2017-Nov-17 14:30N 37°55' E 023°34'2 3.6
2017-Nov-17 14:00N 37°57' E 023°34'2 4.6
2017-Nov-17 13:30N 37°60' E 023°33'3 5.0
2017-Nov-17 13:00N 38°02' E 023°35'1 0.3
2017-Nov-17 11:06N 38°02' E 023°35'0 0.1
2017-Nov-17 11:00N 38°02' E 023°35'0 0.0
2017-Nov-17 10:24N 38°02' E 023°35'0 0.8
2017-Nov-17 10:00N 38°02' E 023°36'1 3.0
2017-Nov-17 09:30N 38°01' E 023°34'3 5.4
2017-Nov-17 09:00N 37°58' E 023°33'3 5.5
2017-Nov-17 08:30N 37°56' E 023°35'3 6.5
2017-Nov-17 08:00N 37°53' E 023°34'0 0.6
2017-Nov-17 07:26N 37°53' E 023°34'2 3.8
2017-Nov-17 07:00N 37°54' E 023°34'2 3.5
2017-Nov-17 06:30N 37°54' E 023°32'3 6.6
2017-Nov-17 06:01N 37°51' E 023°29'3 6.8
2017-Nov-17 05:30N 37°48' E 023°27'3 6.8
2017-Nov-17 05:00N 37°45' E 023°25'0 0.0
2017-Nov-15 16:07N 37°45' E 023°25'1 5.2
2017-Nov-15 16:00N 37°46' E 023°25'3 5.3
2017-Nov-15 15:30N 37°48' E 023°24'3 5.4
2017-Nov-15 15:00N 37°51' E 023°24'3 5.2
2017-Nov-15 14:30N 37°54' E 023°23'3 5.4
2017-Nov-15 14:00N 37°56' E 023°24'2 4.8
2017-Nov-15 13:30N 37°58' E 023°26'2 3.6
2017-Nov-15 13:00N 37°60' E 023°27'3 5.2
2017-Nov-15 12:30N 38°01' E 023°30'3 5.0
2017-Nov-15 12:00N 38°02' E 023°33'2 3.9
2017-Nov-15 11:28N 38°02' E 023°35'0 0.1
2017-Nov-15 10:53N 38°02' E 023°35'0 0.0
2017-Nov-15 10:29N 38°02' E 023°35'0 0.0
2017-Nov-15 10:00N 38°02' E 023°35'0 0.0
2017-Nov-15 09:05N 38°02' E 023°35'0 3.7
2017-Nov-15 09:00N 38°02' E 023°35'3 5.9
2017-Nov-15 08:30N 38°01' E 023°31'3 6.5
2017-Nov-15 08:00N 38°00' E 023°27'3 5.0
2017-Nov-15 07:30N 37°58' E 023°25'3 5.8
2017-Nov-15 07:00N 37°56' E 023°24'3 7.0
2017-Nov-15 06:30N 37°52' E 023°23'3 7.0
2017-Nov-15 06:00N 37°49' E 023°24'3 7.0
2017-Nov-15 05:30N 37°46' E 023°25'1 2.0
2017-Nov-15 04:58N 37°45' E 023°26'0 0.0
2017-Nov-15 04:23N 37°45' E 023°26'0 0.0
2017-Nov-15 03:59N 37°45' E 023°26'0 0.0
2017-Nov-15 03:29N 37°45' E 023°26'0 0.0
2017-Nov-15 02:59N 37°45' E 023°26'0 0.0
2017-Nov-15 02:29N 37°45' E 023°26'0 0.0
2017-Nov-15 02:00N 37°45' E 023°26'0 0.0
2017-Nov-15 01:30N 37°45' E 023°26'0 0.0
2017-Nov-15 00:58N 37°45' E 023°26'0 0.0
2017-Nov-15 00:30N 37°45' E 023°26'0 0.0
2017-Nov-14 23:57N 37°45' E 023°26'0 0.0
2017-Nov-14 23:30N 37°45' E 023°26'0 0.0
2017-Nov-14 22:57N 37°45' E 023°26'0 0.0
2017-Nov-14 22:25N 37°45' E 023°26'0 0.0
2017-Nov-14 21:59N 37°45' E 023°26'0 0.0
2017-Nov-14 21:30N 37°45' E 023°26'0 0.0
2017-Nov-14 20:55N 37°45' E 023°26'0 0.0
2017-Nov-14 20:27N 37°45' E 023°26'0 0.0
2017-Nov-14 19:57N 37°45' E 023°26'0 0.0
2017-Nov-14 19:09N 37°45' E 023°26'0 0.0
2017-Nov-14 18:59N 37°45' E 023°26'0 0.0
2017-Nov-14 18:28N 37°45' E 023°26'0 0.0
2017-Nov-14 17:57N 37°45' E 023°26'0 0.0
2017-Nov-14 17:30N 37°45' E 023°26'0 0.0
2017-Nov-14 17:00N 37°45' E 023°26'0 0.0
2017-Nov-14 16:30N 37°45' E 023°26'0 0.0
2017-Nov-14 15:59N 37°45' E 023°26'0 0.4
2017-Nov-14 15:31N 37°45' E 023°26'2 4.0
2017-Nov-14 15:00N 37°47' E 023°25'2 4.9
2017-Nov-14 14:31N 37°49' E 023°27'3 5.1
2017-Nov-14 14:01N 37°51' E 023°29'3 5.0
2017-Nov-14 13:31N 37°53' E 023°31'3 5.0
2017-Nov-14 13:01N 37°55' E 023°33'2 4.8
2017-Nov-14 12:31N 37°57' E 023°35'2 4.1
2017-Nov-14 12:01N 37°58' E 023°33'3 5.0
2017-Nov-14 11:30N 38°00' E 023°34'2 3.9
2017-Nov-14 10:58N 38°02' E 023°35'0 0.0
2017-Nov-14 10:26N 38°02' E 023°35'0 0.0
2017-Nov-14 09:57N 38°02' E 023°35'0 0.0
2017-Nov-14 09:29N 38°02' E 023°35'0 0.0
2017-Nov-14 08:55N 38°02' E 023°35'0 0.4
2017-Nov-14 08:30N 38°02' E 023°35'3 6.7
2017-Nov-14 08:01N 37°59' E 023°33'3 5.6
2017-Nov-14 07:31N 37°57' E 023°35'3 6.6
2017-Nov-14 07:01N 37°54' E 023°32'  
2017-Nov-11 15:30N 37°45' E 023°26'1 1.7
2017-Nov-11 15:00N 37°45' E 023°25'3 5.1
2017-Nov-11 14:30N 37°48' E 023°26'3 5.4
2017-Nov-11 14:00N 37°50' E 023°28'3 5.1
2017-Nov-11 13:30N 37°52' E 023°30'2 4.9
2017-Nov-11 13:00N 37°54' E 023°32'2 4.9
2017-Nov-11 12:30N 37°56' E 023°34'2 3.4
2017-Nov-11 12:00N 37°57' E 023°34'2 4.4
2017-Nov-11 11:30N 37°59' E 023°33'2 5.0
2017-Nov-11 11:00N 38°02' E 023°35'1 1.4
2017-Nov-11 10:30N 38°02' E 023°35'0 0.0
2017-Nov-11 10:00N 38°02' E 023°35'0 0.0
2017-Nov-11 09:24N 38°02' E 023°35'0 0.0
2017-Nov-11 08:58N 38°02' E 023°35'0 0.7
2017-Nov-11 08:29N 38°02' E 023°36'1 2.8
2017-Nov-11 08:00N 38°01' E 023°34'3 6.7
2017-Nov-11 07:30N 37°58' E 023°33'3 5.1
2017-Nov-11 07:00N 37°56' E 023°34'3 6.8
2017-Nov-11 06:30N 37°53' E 023°31'3 6.8
2017-Nov-11 06:00N 37°50' E 023°29'6 0.2
2017-Nov-09 15:42N 37°45' E 023°26'1 2.9
2017-Nov-09 15:30N 37°45' E 023°25'  
Track history (hours):
 
Tides and Currents Weather Stations Pressure Air Temp Water Temp Dewpoint Dewpoint Depression Visibility Wind Speed Wind Dir Waves Ship Positions

Aegina II

Last reported at 2017-Nov-19 15:11 UTC. Time now 2017-Nov-23 05:52 UTC.
Position N 37°45' E 023°26'.

Length 53 m; draft 5.5 m.

Type: Tanker. MMSI: 237096700.

Date/timePositionNaut miles runAvg speedWind from/ knotsBaromVisibWave heightAir tempDewpointWater temp
2017-Nov-19 15:11N 37°45' E 023°26'1 3.0
2017-Nov-19 15:00N 37°45' E 023°25'2 4.9
2017-Nov-19 14:30N 37°47' E 023°26'3 5.3
2017-Nov-19 14:00N 37°49' E 023°28'3 5.3
2017-Nov-19 13:30N 37°51' E 023°30'3 5.6
2017-Nov-19 13:00N 37°54' E 023°32'3 5.4
2017-Nov-19 12:30N 37°56' E 023°34'2 3.7
2017-Nov-19 12:01N 37°57' E 023°33'2 5.0
2017-Nov-19 11:30N 37°60' E 023°33'3 4.8
2017-Nov-19 10:58N 38°02' E 023°35'0 0.2
2017-Nov-19 10:29N 38°02' E 023°35'0 0.0
2017-Nov-19 09:55N 38°02' E 023°35'0 0.0
2017-Nov-19 09:29N 38°02' E 023°35'0 0.0
2017-Nov-19 08:59N 38°02' E 023°35'1 1.3
2017-Nov-19 08:30N 38°02' E 023°35'3 6.6
2017-Nov-19 08:00N 37°59' E 023°33'3 5.8
2017-Nov-19 07:30N 37°56' E 023°35'3 6.1
2017-Nov-19 07:00N 37°54' E 023°32'3 6.3
2017-Nov-19 06:30N 37°51' E 023°30'3 6.4
2017-Nov-19 06:00N 37°49' E 023°27'3 6.8
2017-Nov-19 05:30N 37°46' E 023°25'1 0.2
2017-Nov-18 21:56N 37°45' E 023°26'0 0.0
2017-Nov-18 21:29N 37°45' E 023°26'0 0.0
2017-Nov-18 21:00N 37°45' E 023°26'0 0.0
2017-Nov-18 20:28N 37°45' E 023°26'0 0.0
2017-Nov-18 19:45N 37°45' E 023°26'0 0.0
2017-Nov-18 19:30N 37°45' E 023°26'0 0.0
2017-Nov-18 18:55N 37°45' E 023°26'0 0.0
2017-Nov-18 18:28N 37°45' E 023°26'0 0.0
2017-Nov-18 17:50N 37°45' E 023°26'0 0.0
2017-Nov-18 16:40N 37°45' E 023°26'0 0.0
2017-Nov-18 16:22N 37°45' E 023°26'0 0.0
2017-Nov-18 15:41N 37°45' E 023°26'0 0.0
2017-Nov-18 15:29N 37°45' E 023°26'0 0.1
2017-Nov-18 15:00N 37°45' E 023°26'2 3.5
2017-Nov-18 14:30N 37°46' E 023°25'3 5.2
2017-Nov-18 14:00N 37°49' E 023°27'3 5.2
2017-Nov-18 13:30N 37°51' E 023°29'3 5.4
2017-Nov-18 13:00N 37°53' E 023°31'3 5.3
2017-Nov-18 12:30N 37°55' E 023°33'2 4.7
2017-Nov-18 12:00N 37°57' E 023°35'2 4.5
2017-Nov-18 11:30N 37°59' E 023°33'3 5.0
2017-Nov-18 11:00N 38°01' E 023°34'2 2.7
2017-Nov-18 10:26N 38°02' E 023°35'0 0.0
2017-Nov-18 10:00N 38°02' E 023°35'0 0.0
2017-Nov-18 09:23N 38°02' E 023°35'0 0.0
2017-Nov-18 08:59N 38°02' E 023°35'1 2.8
2017-Nov-18 08:30N 38°01' E 023°34'3 6.6
2017-Nov-18 08:00N 37°58' E 023°33'3 5.1
2017-Nov-18 07:30N 37°56' E 023°34'3 6.5
2017-Nov-18 07:00N 37°53' E 023°31'3 6.4
2017-Nov-18 06:30N 37°51' E 023°29'3 6.6
2017-Nov-18 06:00N 37°48' E 023°27'3 6.5
2017-Nov-18 05:30N 37°45' E 023°25'2 0.2
2017-Nov-17 16:31N 37°47' E 023°26'0 4.6
2017-Nov-17 16:30N 37°47' E 023°26'3 5.3
2017-Nov-17 15:59N 37°49' E 023°28'3 5.4
2017-Nov-17 15:30N 37°52' E 023°30'3 5.2
2017-Nov-17 15:00N 37°54' E 023°32'3 5.1
2017-Nov-17 14:30N 37°55' E 023°34'2 3.6
2017-Nov-17 14:00N 37°57' E 023°34'2 4.6
2017-Nov-17 13:30N 37°60' E 023°33'3 5.0
2017-Nov-17 13:00N 38°02' E 023°35'1 0.3
2017-Nov-17 11:06N 38°02' E 023°35'0 0.1
2017-Nov-17 11:00N 38°02' E 023°35'0 0.0
2017-Nov-17 10:24N 38°02' E 023°35'0 0.8
2017-Nov-17 10:00N 38°02' E 023°36'1 3.0
2017-Nov-17 09:30N 38°01' E 023°34'3 5.4
2017-Nov-17 09:00N 37°58' E 023°33'3 5.5
2017-Nov-17 08:30N 37°56' E 023°35'3 6.5
2017-Nov-17 08:00N 37°53' E 023°34'0 0.6
2017-Nov-17 07:26N 37°53' E 023°34'2 3.8
2017-Nov-17 07:00N 37°54' E 023°34'2 3.5
2017-Nov-17 06:30N 37°54' E 023°32'3 6.6
2017-Nov-17 06:01N 37°51' E 023°29'3 6.8
2017-Nov-17 05:30N 37°48' E 023°27'3 6.8
2017-Nov-17 05:00N 37°45' E 023°25'0 0.0
2017-Nov-15 16:07N 37°45' E 023°25'1 5.2
2017-Nov-15 16:00N 37°46' E 023°25'3 5.3
2017-Nov-15 15:30N 37°48' E 023°24'3 5.4
2017-Nov-15 15:00N 37°51' E 023°24'3 5.2
2017-Nov-15 14:30N 37°54' E 023°23'3 5.4
2017-Nov-15 14:00N 37°56' E 023°24'2 4.8
2017-Nov-15 13:30N 37°58' E 023°26'2 3.6
2017-Nov-15 13:00N 37°60' E 023°27'3 5.2
2017-Nov-15 12:30N 38°01' E 023°30'3 5.0
2017-Nov-15 12:00N 38°02' E 023°33'2 3.9
2017-Nov-15 11:28N 38°02' E 023°35'0 0.1
2017-Nov-15 10:53N 38°02' E 023°35'0 0.0
2017-Nov-15 10:29N 38°02' E 023°35'0 0.0
2017-Nov-15 10:00N 38°02' E 023°35'0 0.0
2017-Nov-15 09:05N 38°02' E 023°35'0 3.7
2017-Nov-15 09:00N 38°02' E 023°35'3 5.9
2017-Nov-15 08:30N 38°01' E 023°31'3 6.5
2017-Nov-15 08:00N 38°00' E 023°27'3 5.0
2017-Nov-15 07:30N 37°58' E 023°25'3 5.8
2017-Nov-15 07:00N 37°56' E 023°24'3 7.0
2017-Nov-15 06:30N 37°52' E 023°23'3 7.0
2017-Nov-15 06:00N 37°49' E 023°24'3 7.0
2017-Nov-15 05:30N 37°46' E 023°25'1 2.0
2017-Nov-15 04:58N 37°45' E 023°26'0 0.0
2017-Nov-15 04:23N 37°45' E 023°26'0 0.0
2017-Nov-15 03:59N 37°45' E 023°26'0 0.0
2017-Nov-15 03:29N 37°45' E 023°26'0 0.0
2017-Nov-15 02:59N 37°45' E 023°26'0 0.0
2017-Nov-15 02:29N 37°45' E 023°26'0 0.0
2017-Nov-15 02:00N 37°45' E 023°26'0 0.0
2017-Nov-15 01:30N 37°45' E 023°26'0 0.0
2017-Nov-15 00:58N 37°45' E 023°26'0 0.0
2017-Nov-15 00:30N 37°45' E 023°26'0 0.0
2017-Nov-14 23:57N 37°45' E 023°26'0 0.0
2017-Nov-14 23:30N 37°45' E 023°26'0 0.0
2017-Nov-14 22:57N 37°45' E 023°26'0 0.0
2017-Nov-14 22:25N 37°45' E 023°26'0 0.0
2017-Nov-14 21:59N 37°45' E 023°26'0 0.0
2017-Nov-14 21:30N 37°45' E 023°26'0 0.0
2017-Nov-14 20:55N 37°45' E 023°26'0 0.0
2017-Nov-14 20:27N 37°45' E 023°26'0 0.0
2017-Nov-14 19:57N 37°45' E 023°26'0 0.0
2017-Nov-14 19:09N 37°45' E 023°26'0 0.0
2017-Nov-14 18:59N 37°45' E 023°26'0 0.0
2017-Nov-14 18:28N 37°45' E 023°26'0 0.0
2017-Nov-14 17:57N 37°45' E 023°26'0 0.0
2017-Nov-14 17:30N 37°45' E 023°26'0 0.0
2017-Nov-14 17:00N 37°45' E 023°26'0 0.0
2017-Nov-14 16:30N 37°45' E 023°26'0 0.0
2017-Nov-14 15:59N 37°45' E 023°26'0 0.4
2017-Nov-14 15:31N 37°45' E 023°26'2 4.0
2017-Nov-14 15:00N 37°47' E 023°25'2 4.9
2017-Nov-14 14:31N 37°49' E 023°27'3 5.1
2017-Nov-14 14:01N 37°51' E 023°29'3 5.0
2017-Nov-14 13:31N 37°53' E 023°31'3 5.0
2017-Nov-14 13:01N 37°55' E 023°33'2 4.8
2017-Nov-14 12:31N 37°57' E 023°35'2 4.1
2017-Nov-14 12:01N 37°58' E 023°33'3 5.0
2017-Nov-14 11:30N 38°00' E 023°34'2 3.9
2017-Nov-14 10:58N 38°02' E 023°35'0 0.0
2017-Nov-14 10:26N 38°02' E 023°35'0 0.0
2017-Nov-14 09:57N 38°02' E 023°35'0 0.0
2017-Nov-14 09:29N 38°02' E 023°35'0 0.0
2017-Nov-14 08:55N 38°02' E 023°35'0 0.4
2017-Nov-14 08:30N 38°02' E 023°35'3 6.7
2017-Nov-14 08:01N 37°59' E 023°33'3 5.6
2017-Nov-14 07:31N 37°57' E 023°35'3 6.6
2017-Nov-14 07:01N 37°54' E 023°32'  
2017-Nov-11 15:30N 37°45' E 023°26'1 1.7
2017-Nov-11 15:00N 37°45' E 023°25'3 5.1
2017-Nov-11 14:30N 37°48' E 023°26'3 5.4
2017-Nov-11 14:00N 37°50' E 023°28'3 5.1
2017-Nov-11 13:30N 37°52' E 023°30'2 4.9
2017-Nov-11 13:00N 37°54' E 023°32'2 4.9
2017-Nov-11 12:30N 37°56' E 023°34'2 3.4
2017-Nov-11 12:00N 37°57' E 023°34'2 4.4
2017-Nov-11 11:30N 37°59' E 023°33'2 5.0
2017-Nov-11 11:00N 38°02' E 023°35'1 1.4
2017-Nov-11 10:30N 38°02' E 023°35'0 0.0
2017-Nov-11 10:00N 38°02' E 023°35'0 0.0
2017-Nov-11 09:24N 38°02' E 023°35'0 0.0
2017-Nov-11 08:58N 38°02' E 023°35'0 0.7
2017-Nov-11 08:29N 38°02' E 023°36'1 2.8
2017-Nov-11 08:00N 38°01' E 023°34'3 6.7
2017-Nov-11 07:30N 37°58' E 023°33'3 5.1
2017-Nov-11 07:00N 37°56' E 023°34'3 6.8
2017-Nov-11 06:30N 37°53' E 023°31'3 6.8
2017-Nov-11 06:00N 37°50' E 023°29'6 0.2
2017-Nov-09 15:42N 37°45' E 023°26'1 2.9
2017-Nov-09 15:30N 37°45' E 023°25'  

Dump ship's entire track history